Time;durP1;ratioP1;P1;durP2;ratioP2;P2;SDS_P1;SDS_P2;PMS_P1;PMS_P2;Temp;Humidity;BMP_temperature;BMP_pressure;BME280_temperature;BME280_humidity;BME280_pressure;Samples;Min_cycle;Max_cycle;Signal;HPM_P1;HPM_P2
2022/09/05 00:01:07;;;;;;;0.40;0.40;;;17.60;99.90;;;;;;5076892;27;21236;-81
2022/09/05 00:04:17;;;;;;;0.50;0.50;;;17.60;99.90;;;;;;5066356;27;20979;-80
2022/09/05 00:06:52;;;;;;;0.43;0.43;;;17.60;99.90;;;;;;4999641;28;20623;-80
2022/09/05 00:09:42;;;;;;;0.40;0.40;;;17.40;99.90;;;;;;5051456;27;20059;-80
2022/09/05 00:12:09;;;;;;;0.40;0.40;;;17.50;99.90;;;;;;5066301;27;20119;-80
2022/09/05 00:15:13;;;;;;;0.50;0.50;;;17.50;99.90;;;;;;5065418;28;20061;-80
2022/09/05 00:18:10;;;;;;;0.40;0.40;;;17.40;99.90;;;;;;5066387;28;20087;-80
2022/09/05 00:21:05;;;;;;;0.40;0.40;;;17.50;99.90;;;;;;5081243;27;20039;-80
2022/09/05 00:23:39;;;;;;;0.45;0.45;;;17.50;99.90;;;;;;5045387;27;20062;-80
2022/09/05 00:26:31;;;;;;;0.47;0.47;;;17.50;99.90;;;;;;5063862;28;20069;-81
2022/09/05 00:29:28;;;;;;;0.40;0.40;;;17.40;99.90;;;;;;5061654;27;20165;-81
2022/09/05 00:32:02;;;;;;;0.40;0.40;;;17.50;99.90;;;;;;4988392;27;20106;-80
2022/09/05 00:34:49;;;;;;;0.50;0.50;;;17.50;99.90;;;;;;5067121;27;20047;-81
2022/09/05 00:37:30;;;;;;;0.40;0.40;;;17.60;99.90;;;;;;5047535;28;20040;-81
2022/09/05 00:40:09;;;;;;;0.45;0.45;;;17.60;99.90;;;;;;5024035;28;20055;-81
2022/09/05 00:42:35;;;;;;;0.40;0.40;;;17.70;99.90;;;;;;5044819;28;20111;-80
2022/09/05 00:45:04;;;;;;;0.40;0.40;;;17.70;99.90;;;;;;5046207;28;20051;-81
2022/09/05 00:47:56;;;;;;;0.40;0.40;;;17.80;99.90;;;;;;5042053;28;20052;-81
2022/09/05 00:50:34;;;;;;;0.47;0.47;;;17.80;99.90;;;;;;5046563;28;20046;-81
2022/09/05 00:53:28;;;;;;;0.40;0.40;;;17.80;99.90;;;;;;5049228;28;20079;-81
2022/09/05 00:56:18;;;;;;;0.40;0.40;;;17.90;99.90;;;;;;5041867;28;20059;-81
2022/09/05 00:58:49;;;;;;;0.40;0.40;;;17.90;99.90;;;;;;5048697;28;20305;-80
2022/09/05 01:01:55;;;;;;;0.50;0.50;;;18.00;99.90;;;;;;5051065;28;20066;-80
2022/09/05 01:04:31;;;;;;;0.40;0.40;;;18.00;99.90;;;;;;5063987;28;20057;-81
2022/09/05 01:07:12;;;;;;;0.40;0.40;;;18.00;99.90;;;;;;5064449;28;20598;-80
2022/09/05 01:09:42;;;;;;;0.45;0.45;;;18.10;99.90;;;;;;5046914;28;20055;-80
2022/09/05 01:12:31;;;;;;;0.40;0.40;;;18.00;99.90;;;;;;5067222;28;20036;-80
2022/09/05 01:15:43;;;;;;;0.40;0.40;;;17.90;99.90;;;;;;5061023;28;20054;-80
2022/09/05 01:18:33;;;;;;;0.40;0.40;;;17.90;99.90;;;;;;4984257;28;20068;-80
2022/09/05 01:21:26;;;;;;;0.50;0.50;;;18.00;99.90;;;;;;5041038;28;21002;-80
2022/09/05 01:24:01;;;;;;;0.50;0.50;;;17.90;99.90;;;;;;5041459;28;20048;-80
2022/09/05 01:26:33;;;;;;;0.50;0.50;;;17.90;99.90;;;;;;5069503;28;20357;-80
2022/09/05 01:29:11;;;;;;;0.40;0.40;;;18.00;99.90;;;;;;5053932;28;20047;-80
2022/09/05 01:32:02;;;;;;;0.40;0.40;;;17.90;99.90;;;;;;5048928;28;20087;-80
2022/09/05 01:34:28;;;;;;;0.50;0.50;;;17.80;99.90;;;;;;5052858;28;20052;-80
2022/09/05 01:37:06;;;;;;;0.40;0.40;;;17.90;99.90;;;;;;5047002;28;20252;-80
2022/09/05 01:39:42;;;;;;;0.43;0.43;;;17.90;99.90;;;;;;5049195;28;20101;-81
2022/09/05 01:42:17;;;;;;;0.40;0.40;;;17.80;99.90;;;;;;5051450;28;20054;-80
2022/09/05 01:45:02;;;;;;;0.40;0.40;;;17.80;99.90;;;;;;5065897;28;20040;-81
2022/09/05 01:47:47;;;;;;;0.45;0.45;;;17.70;99.90;;;;;;5054625;28;20540;-80
2022/09/05 01:50:42;;;;;;;0.40;0.40;;;17.70;99.90;;;;;;5067115;28;20082;-80
2022/09/05 01:53:28;;;;;;;0.40;0.40;;;17.80;99.90;;;;;;5055094;28;20062;-80
2022/09/05 01:56:20;;;;;;;0.50;0.50;;;17.80;99.90;;;;;;5038779;28;20120;-80
2022/09/05 01:59:08;;;;;;;0.50;0.50;;;17.60;99.90;;;;;;5068425;28;20123;-80
2022/09/05 02:02:04;;;;;;;0.55;0.55;;;17.60;99.90;;;;;;5064428;28;20344;-80
2022/09/05 02:05:08;;;;;;;0.50;0.50;;;17.40;99.90;;;;;;5051523;28;20071;-80
2022/09/05 02:08:31;;;;;;;0.50;0.50;;;17.30;99.90;;;;;;5047023;28;20100;-80
2022/09/05 02:11:03;;;;;;;0.50;0.50;;;17.20;99.90;;;;;;4971323;28;20092;-80
2022/09/05 02:13:45;;;;;;;0.50;0.50;;;17.20;99.90;;;;;;4988872;28;20081;-81
2022/09/05 02:16:35;;;;;;;0.50;0.50;;;17.10;99.90;;;;;;5036498;28;20043;-80
2022/09/05 02:19:19;;;;;;;0.50;0.50;;;17.00;99.90;;;;;;5042528;28;20051;-80
2022/09/05 02:22:00;;;;;;;0.60;0.60;;;16.90;99.90;;;;;;5050185;28;20108;-80
2022/09/05 02:24:35;;;;;;;0.50;0.50;;;16.90;99.90;;;;;;5063977;28;20138;-80
2022/09/05 02:27:30;;;;;;;0.50;0.50;;;16.90;99.90;;;;;;5047063;28;20053;-80
2022/09/05 02:30:18;;;;;;;0.50;0.50;;;16.90;99.90;;;;;;5054225;28;20047;-80
2022/09/05 02:33:07;;;;;;;0.50;0.50;;;16.90;99.90;;;;;;5034548;28;20052;-81
2022/09/05 02:35:48;;;;;;;0.50;0.50;;;16.80;99.90;;;;;;5048041;28;20530;-81
2022/09/05 02:38:42;;;;;;;0.50;0.50;;;16.70;99.90;;;;;;5039449;28;20237;-80
2022/09/05 02:41:28;;;;;;;;;;;16.80;99.90;;;;;;5045642;28;20035;-81
2022/09/05 02:44:07;;;;;;;0.50;0.50;;;16.60;99.90;;;;;;5046160;28;20439;-81
2022/09/05 02:46:48;;;;;;;0.50;0.50;;;16.60;99.90;;;;;;5068663;28;20695;-80
2022/09/05 02:49:22;;;;;;;0.50;0.50;;;16.70;99.90;;;;;;5046974;28;20556;-81
2022/09/05 02:51:57;;;;;;;0.40;0.40;;;16.60;99.90;;;;;;5065848;28;20043;-81
2022/09/05 02:54:28;;;;;;;0.43;0.43;;;16.60;99.90;;;;;;5066304;28;20445;-80
2022/09/05 02:57:14;;;;;;;0.50;0.50;;;16.50;99.90;;;;;;5048347;28;20826;-80
2022/09/05 02:59:43;;;;;;;0.50;0.50;;;16.60;99.90;;;;;;5048746;28;20048;-80
2022/09/05 03:02:24;;;;;;;0.50;0.50;;;16.60;99.90;;;;;;5047686;28;20515;-81
2022/09/05 03:05:21;;;;;;;0.43;0.43;;;16.60;99.90;;;;;;5045877;28;20047;-80
2022/09/05 03:07:50;;;;;;;0.50;0.50;;;16.60;99.90;;;;;;5020458;28;20051;-80
2022/09/05 03:10:44;;;;;;;0.50;0.50;;;16.70;99.90;;;;;;5054312;28;20058;-80
2022/09/05 03:13:24;;;;;;;0.50;0.50;;;16.70;99.90;;;;;;5062871;28;20756;-80
2022/09/05 03:16:27;;;;;;;0.50;0.50;;;16.60;99.90;;;;;;5035775;28;20048;-80
2022/09/05 03:18:56;;;;;;;0.40;0.40;;;16.50;99.90;;;;;;5046520;28;20051;-80
2022/09/05 03:21:25;;;;;;;0.45;0.45;;;16.40;99.90;;;;;;5045634;28;20075;-80
2022/09/05 03:24:19;;;;;;;0.40;0.40;;;16.30;99.90;;;;;;5047566;28;20055;-81
2022/09/05 03:27:14;;;;;;;0.50;0.50;;;16.40;99.90;;;;;;5049999;28;20055;-81
2022/09/05 03:29:53;;;;;;;0.47;0.47;;;16.30;99.90;;;;;;5047319;28;20890;-81
2022/09/05 03:32:34;;;;;;;0.50;0.50;;;16.20;99.90;;;;;;5066058;28;20051;-81
2022/09/05 03:35:19;;;;;;;0.50;0.50;;;16.30;99.90;;;;;;5046857;28;20051;-81
2022/09/05 03:38:15;;;;;;;0.50;0.50;;;16.30;99.90;;;;;;5060830;28;20112;-80
2022/09/05 03:40:52;;;;;;;0.50;0.50;;;16.20;99.90;;;;;;5050643;28;20059;-80
2022/09/05 03:43:29;;;;;;;0.50;0.50;;;16.10;99.90;;;;;;5068795;28;20602;-81
2022/09/05 03:46:07;;;;;;;0.50;0.50;;;16.10;99.90;;;;;;5038979;28;20058;-80
2022/09/05 03:48:57;;;;;;;0.50;0.50;;;16.20;99.90;;;;;;5050668;28;20230;-80
2022/09/05 03:51:30;;;;;;;0.47;0.47;;;16.10;99.90;;;;;;5065907;28;20363;-81
2022/09/05 03:54:22;;;;;;;0.50;0.50;;;16.10;99.90;;;;;;5048372;28;20050;-81
2022/09/05 03:57:09;;;;;;;0.40;0.40;;;16.00;99.90;;;;;;5047949;28;20960;-81
2022/09/05 03:59:58;;;;;;;0.40;0.40;;;16.00;99.90;;;;;;5049933;28;20047;-81
2022/09/05 04:02:29;;;;;;;0.40;0.40;;;15.90;99.90;;;;;;5050577;28;20253;-81
2022/09/05 04:05:13;;;;;;;0.50;0.50;;;15.90;99.90;;;;;;5050116;28;20043;-81
2022/09/05 04:07:43;;;;;;;0.50;0.50;;;15.90;99.90;;;;;;5046863;28;20043;-81
2022/09/05 04:10:21;;;;;;;0.50;0.50;;;15.90;99.90;;;;;;5044662;28;20439;-80
2022/09/05 04:13:28;;;;;;;0.50;0.50;;;15.90;99.90;;;;;;5066430;28;20053;-80
2022/09/05 04:16:19;;;;;;;0.50;0.50;;;16.00;99.90;;;;;;4929351;28;20046;-80
2022/09/05 04:18:53;;;;;;;0.50;0.50;;;16.00;99.90;;;;;;5041297;28;20060;-80
2022/09/05 04:21:31;;;;;;;0.43;0.43;;;16.00;99.90;;;;;;5045905;28;21006;-81
2022/09/05 04:24:24;;;;;;;0.40;0.40;;;15.90;99.90;;;;;;5044285;28;20128;-80
2022/09/05 04:27:12;;;;;;;0.50;0.50;;;15.90;99.90;;;;;;5065680;28;20060;-80
2022/09/05 04:29:41;;;;;;;0.50;0.50;;;16.00;99.90;;;;;;5041066;28;20383;-80
2022/09/05 04:32:22;;;;;;;0.50;0.50;;;15.90;99.90;;;;;;5047304;28;20773;-80
2022/09/05 04:35:10;;;;;;;0.50;0.50;;;15.90;99.90;;;;;;5047362;28;20114;-80
2022/09/05 04:37:45;;;;;;;0.40;0.40;;;15.80;99.90;;;;;;5041751;28;20043;-81
2022/09/05 04:40:31;;;;;;;0.50;0.50;;;15.90;99.90;;;;;;5063046;28;20525;-81
2022/09/05 04:43:02;;;;;;;0.45;0.45;;;15.80;99.90;;;;;;5046486;28;20081;-80
2022/09/05 04:45:32;;;;;;;0.50;0.50;;;15.70;99.90;;;;;;5048023;28;20706;-80
2022/09/05 04:48:01;;;;;;;0.50;0.50;;;15.60;99.90;;;;;;5061204;28;20058;-81
2022/09/05 04:50:28;;;;;;;0.40;0.40;;;15.60;99.90;;;;;;5013711;28;20075;-80
2022/09/05 04:53:12;;;;;;;0.40;0.40;;;15.60;99.90;;;;;;5023083;28;20056;-80
2022/09/05 04:55:46;;;;;;;0.50;0.50;;;15.60;99.90;;;;;;5042845;28;20072;-81
2022/09/05 04:58:24;;;;;;;;;;;15.50;99.90;;;;;;5047165;28;20459;-80
2022/09/05 05:00:55;;;;;;;0.50;0.50;;;15.60;99.90;;;;;;5048722;28;20108;-80
2022/09/05 05:03:26;;;;;;;0.50;0.50;;;15.60;99.90;;;;;;5050694;28;20374;-80
2022/09/05 05:06:17;;;;;;;0.50;0.50;;;15.60;99.90;;;;;;5045203;28;20110;-80
2022/09/05 05:09:01;;;;;;;0.50;0.50;;;15.60;99.90;;;;;;5047711;28;20112;-81
2022/09/05 05:11:36;;;;;;;0.50;0.50;;;15.60;99.90;;;;;;5071273;28;20819;-80
2022/09/05 05:14:30;;;;;;;0.50;0.50;;;15.60;99.90;;;;;;5068796;28;21059;-80
2022/09/05 05:17:11;;;;;;;0.50;0.50;;;15.60;99.90;;;;;;5071035;28;21006;-80
2022/09/05 05:19:46;;;;;;;0.50;0.50;;;15.60;99.90;;;;;;5071291;28;20573;-80
2022/09/05 05:22:14;;;;;;;0.50;0.50;;;15.60;99.90;;;;;;5059249;28;20059;-81
2022/09/05 05:24:45;;;;;;;0.47;0.47;;;15.60;99.90;;;;;;5058426;28;20052;-80
2022/09/05 05:27:26;;;;;;;0.50;0.50;;;15.70;99.90;;;;;;5055643;28;20733;-81
2022/09/05 05:30:07;;;;;;;0.50;0.50;;;15.80;99.90;;;;;;5056767;28;20850;-81
2022/09/05 05:32:54;;;;;;;0.50;0.50;;;15.90;99.90;;;;;;5055833;28;20043;-79
2022/09/05 05:35:30;;;;;;;0.50;0.50;;;15.90;99.90;;;;;;5053209;28;20047;-79
2022/09/05 05:38:13;;;;;;;0.50;0.50;;;16.00;99.90;;;;;;5049487;28;20048;-81
2022/09/05 05:40:45;;;;;;;0.50;0.50;;;16.00;99.90;;;;;;5045453;28;20289;-78
2022/09/05 05:43:15;;;;;;;0.50;0.50;;;16.00;99.90;;;;;;5047010;28;20137;-81
2022/09/05 05:45:41;;;;;;;0.40;0.40;;;16.10;99.90;;;;;;5058599;28;20210;-81
2022/09/05 05:48:38;;;;;;;0.50;0.50;;;16.10;99.90;;;;;;5063625;28;20126;-81
2022/09/05 05:51:23;;;;;;;0.50;0.50;;;16.20;99.90;;;;;;5026372;28;20840;-80
2022/09/05 05:54:19;;;;;;;0.50;0.50;;;16.20;99.90;;;;;;5052862;28;20567;-81
2022/09/05 05:56:56;;;;;;;0.50;0.50;;;16.20;99.90;;;;;;5076978;28;20051;-81
2022/09/05 05:59:58;;;;;;;0.50;0.50;;;16.30;99.90;;;;;;5073501;28;20068;-80
2022/09/05 06:02:49;;;;;;;0.50;0.50;;;16.30;99.90;;;;;;5051107;28;20040;-81
2022/09/05 06:05:24;;;;;;;0.50;0.50;;;16.30;99.90;;;;;;5070496;28;20036;-81
2022/09/05 06:08:09;;;;;;;0.50;0.50;;;16.40;99.90;;;;;;5057736;28;20035;-79
2022/09/05 06:11:16;;;;;;;0.50;0.50;;;16.50;99.90;;;;;;5073469;28;20148;-81
2022/09/05 06:14:05;;;;;;;0.47;0.47;;;16.60;99.90;;;;;;5032461;28;20086;-81
2022/09/05 06:17:03;;;;;;;0.50;0.50;;;16.80;99.90;;;;;;5049097;28;20055;-80
2022/09/05 06:19:51;;;;;;;0.40;0.40;;;17.00;99.90;;;;;;5065576;28;20057;-82
2022/09/05 06:22:39;;;;;;;0.40;0.40;;;17.30;99.90;;;;;;5067644;28;20135;-81
2022/09/05 06:25:30;;;;;;;0.50;0.50;;;17.60;99.90;;;;;;5066275;28;20087;-82
2022/09/05 06:28:24;;;;;;;0.50;0.50;;;17.80;99.90;;;;;;5078485;28;20059;-80
2022/09/05 06:30:57;;;;;;;0.50;0.50;;;17.90;99.90;;;;;;5050450;28;20047;-82
2022/09/05 06:33:44;;;;;;;0.50;0.50;;;18.00;99.90;;;;;;5083831;28;20795;-81
2022/09/05 06:36:19;;;;;;;0.40;0.40;;;17.70;99.90;;;;;;5064031;28;20536;-82
2022/09/05 06:39:02;;;;;;;0.50;0.50;;;18.00;99.90;;;;;;5061188;28;20047;-82
2022/09/05 06:41:56;;;;;;;0.50;0.50;;;18.20;99.90;;;;;;5062523;28;20162;-81
2022/09/05 06:44:40;;;;;;;0.40;0.40;;;18.50;99.90;;;;;;5066292;28;20122;-80
2022/09/05 06:47:19;;;;;;;0.40;0.40;;;18.50;99.90;;;;;;5065088;28;20812;-80
2022/09/05 06:50:10;;;;;;;0.40;0.40;;;19.00;99.90;;;;;;5067717;28;20158;-81
2022/09/05 06:52:57;;;;;;;0.40;0.40;;;19.30;99.90;;;;;;5066337;28;20047;-81
2022/09/05 06:56:04;;;;;;;0.40;0.40;;;19.00;99.90;;;;;;5081934;28;20115;-81
2022/09/05 06:58:48;;;;;;;0.40;0.40;;;19.30;99.90;;;;;;4986775;28;20061;-82
2022/09/05 07:01:26;;;;;;;0.40;0.40;;;19.40;99.90;;;;;;5065981;28;20809;-82
2022/09/05 07:03:55;;;;;;;0.40;0.40;;;19.70;99.90;;;;;;5064942;28;20079;-80
2022/09/05 07:06:58;;;;;;;0.40;0.40;;;19.90;99.90;;;;;;5065160;28;20143;-81
2022/09/05 07:09:48;;;;;;;0.40;0.40;;;19.80;99.90;;;;;;5064930;28;20048;-81
2022/09/05 07:12:20;;;;;;;0.40;0.40;;;20.20;99.90;;;;;;5065061;28;20051;-80
2022/09/05 07:15:11;;;;;;;0.40;0.40;;;20.30;99.90;;;;;;5077680;28;20043;-81
2022/09/05 07:17:59;;;;;;;0.40;0.40;;;20.80;99.90;;;;;;5065491;28;20052;-81
2022/09/05 07:20:34;;;;;;;0.40;0.40;;;20.70;99.90;;;;;;5081687;28;20039;-80
2022/09/05 07:23:12;;;;;;;0.30;0.30;;;20.80;99.90;;;;;;5082924;28;20048;-80
2022/09/05 07:25:40;;;;;;;0.30;0.30;;;21.10;99.90;;;;;;5063571;28;20411;-82
2022/09/05 07:28:12;;;;;;;0.40;0.40;;;21.10;99.90;;;;;;5046027;28;20040;-80
2022/09/05 07:30:47;;;;;;;0.38;0.38;;;21.30;99.90;;;;;;5062064;28;20159;-80
2022/09/05 07:33:23;;;;;;;0.30;0.30;;;21.80;99.90;;;;;;5081141;28;20067;-82
2022/09/05 07:35:50;;;;;;;0.30;0.30;;;21.60;99.90;;;;;;5080788;28;20051;-83
2022/09/05 07:38:31;;;;;;;0.30;0.30;;;21.50;99.90;;;;;;5065942;28;20059;-82
2022/09/05 07:41:19;;;;;;;0.40;0.40;;;21.60;99.90;;;;;;5049146;28;20055;-82
2022/09/05 07:43:49;;;;;;;0.30;0.30;;;21.80;99.90;;;;;;5083198;28;20146;-80
2022/09/05 07:46:19;;;;;;;0.30;0.30;;;21.90;99.90;;;;;;5062583;28;20105;-81
2022/09/05 07:49:13;;;;;;;0.30;0.30;;;22.30;99.90;;;;;;5053958;28;20044;-82
2022/09/05 07:51:57;;;;;;;0.40;0.40;;;22.70;99.90;;;;;;5083979;28;20077;-81
2022/09/05 07:54:34;;;;;;;0.30;0.30;;;22.20;99.90;;;;;;5069376;28;20068;-82
2022/09/05 07:57:04;;;;;;;0.30;0.30;;;21.90;99.90;;;;;;5084883;28;20123;-81
2022/09/05 07:59:37;;;;;;;0.30;0.30;;;22.30;99.90;;;;;;5067710;28;20059;-81
2022/09/05 08:02:07;;;;;;;0.30;0.30;;;22.30;99.90;;;;;;5082621;28;20059;-82
2022/09/05 08:04:34;;;;;;;0.30;0.30;;;22.90;99.90;;;;;;5078181;28;20044;-82
2022/09/05 08:07:29;;;;;;;0.30;0.30;;;23.30;99.90;;;;;;5058825;28;20214;-81
2022/09/05 08:10:09;;;;;;;0.30;0.30;;;23.60;99.90;;;;;;5052384;28;20097;-82
2022/09/05 08:12:49;;;;;;;0.38;0.38;;;23.60;99.90;;;;;;5063775;28;20043;-82
2022/09/05 08:15:25;;;;;;;0.30;0.30;;;23.20;99.90;;;;;;5066258;28;20291;-81
2022/09/05 08:18:05;;;;;;;0.43;0.43;;;23.50;99.90;;;;;;5065847;28;20051;-80
2022/09/05 08:21:06;;;;;;;0.30;0.30;;;24.00;99.90;;;;;;5063431;28;20071;-85
2022/09/05 08:24:12;;;;;;;0.43;0.43;;;24.20;99.90;;;;;;5081471;28;21165;-82
2022/09/05 08:26:47;;;;;;;0.30;0.30;;;24.40;99.90;;;;;;5063098;28;20044;-79
2022/09/05 08:29:19;;;;;;;0.30;0.30;;;24.20;99.90;;;;;;5063210;28;20058;-84
2022/09/05 08:32:13;;;;;;;0.30;0.30;;;24.60;99.90;;;;;;5083273;28;20059;-82
2022/09/05 08:34:54;;;;;;;0.40;0.40;;;24.90;99.90;;;;;;5061109;28;20056;-81
2022/09/05 08:37:24;;;;;;;0.30;0.30;;;24.30;99.90;;;;;;5062938;28;21143;-84
2022/09/05 08:40:02;;;;;;;0.30;0.30;;;24.60;99.90;;;;;;5062517;28;20059;-82
2022/09/05 08:42:48;;;;;;;0.30;0.30;;;24.30;99.90;;;;;;5064374;28;20048;-81
2022/09/05 08:45:21;;;;;;;0.30;0.30;;;24.90;99.90;;;;;;5066010;28;20070;-81
2022/09/05 08:47:53;;;;;;;0.30;0.30;;;25.10;99.90;;;;;;5077448;28;20054;-82
2022/09/05 08:50:23;;;;;;;0.30;0.30;;;25.00;99.90;;;;;;5062917;28;20882;-82
2022/09/05 08:53:13;;;;;;;0.30;0.30;;;25.00;99.90;;;;;;5082227;28;20052;-82
2022/09/05 08:56:09;;;;;;;0.30;0.30;;;25.30;99.90;;;;;;5064858;28;20169;-82
2022/09/05 08:58:46;;;;;;;0.32;0.32;;;25.30;99.90;;;;;;5082358;28;20100;-81
2022/09/05 09:01:32;;;;;;;0.30;0.30;;;25.60;99.90;;;;;;5064475;28;20043;-83
2022/09/05 09:04:27;;;;;;;0.30;0.30;;;24.90;99.90;;;;;;5065243;28;20048;-81
2022/09/05 09:07:26;;;;;;;0.30;0.30;;;25.70;99.90;;;;;;5063279;28;20097;-82
2022/09/05 09:10:04;;;;;;;0.40;0.40;;;25.90;99.90;;;;;;5053464;28;20158;-81
2022/09/05 09:12:56;;;;;;;0.30;0.30;;;26.00;99.90;;;;;;5064690;28;20108;-84
2022/09/05 09:15:32;;;;;;;0.30;0.30;;;25.80;99.90;;;;;;5068305;28;20082;-82
2022/09/05 09:18:06;;;;;;;0.32;0.32;;;25.80;99.90;;;;;;5081604;28;20051;-82
2022/09/05 09:20:51;;;;;;;0.30;0.30;;;25.90;99.90;;;;;;5064841;28;20035;-83
2022/09/05 09:23:29;;;;;;;0.22;0.22;;;26.20;99.90;;;;;;5064092;28;20051;-83
2022/09/05 09:26:12;;;;;;;0.40;0.40;;;26.40;99.90;;;;;;5064379;28;20083;-85
2022/09/05 09:28:46;;;;;;;0.30;0.30;;;26.50;99.90;;;;;;5033370;28;20842;-82
2022/09/05 09:31:21;;;;;;;0.30;0.30;;;26.60;99.90;;;;;;5067912;28;20140;-83
2022/09/05 09:34:10;;;;;;;0.30;0.30;;;27.40;99.90;;;;;;5082330;28;20074;-81
2022/09/05 09:36:36;;;;;;;0.30;0.30;;;27.10;99.90;;;;;;5037054;28;20039;-83
2022/09/05 09:39:23;;;;;;;0.30;0.30;;;26.50;99.90;;;;;;5046691;28;20121;-82
2022/09/05 09:42:08;;;;;;;0.30;0.30;;;26.40;99.90;;;;;;5063879;28;20044;-84
2022/09/05 09:45:04;;;;;;;0.30;0.30;;;26.40;99.90;;;;;;5064556;28;20043;-82
2022/09/05 09:48:08;;;;;;;0.30;0.30;;;27.20;99.90;;;;;;5066318;28;20666;-82
2022/09/05 09:50:55;;;;;;;0.30;0.30;;;27.30;99.90;;;;;;5046972;28;20466;-81
2022/09/05 09:53:39;;;;;;;0.30;0.30;;;27.50;99.90;;;;;;5070770;28;20391;-82
2022/09/05 09:56:26;;;;;;;0.30;0.30;;;27.20;99.90;;;;;;5047191;28;20047;-82
2022/09/05 09:58:57;;;;;;;0.30;0.30;;;27.00;99.90;;;;;;5069697;28;20123;-82
2022/09/05 10:02:00;;;;;;;0.30;0.30;;;27.70;99.90;;;;;;5086764;28;20044;-86
2022/09/05 10:04:50;;;;;;;0.28;0.28;;;28.20;99.90;;;;;;5051669;28;20043;-82
2022/09/05 10:07:22;;;;;;;0.30;0.30;;;27.90;99.90;;;;;;5050266;28;20312;-85
2022/09/05 10:10:06;;;;;;;0.30;0.30;;;28.40;99.90;;;;;;5075516;28;20051;-84
2022/09/05 10:13:04;;;;;;;0.30;0.30;;;28.80;99.90;;;;;;5085500;28;20108;-87
2022/09/05 10:15:53;;;;;;;0.20;0.20;;;28.80;99.90;;;;;;5008566;28;20093;-84
2022/09/05 10:18:44;;;;;;;0.30;0.30;;;28.10;99.50;;;;;;5067098;28;20118;-83
2022/09/05 10:21:28;;;;;;;0.20;0.20;;;28.40;99.90;;;;;;5057089;28;20075;-83
2022/09/05 10:24:20;;;;;;;0.30;0.30;;;28.10;99.80;;;;;;5085577;28;20054;-85
2022/09/05 10:26:52;;;;;;;0.25;0.25;;;28.60;99.90;;;;;;5065943;28;20056;-83
2022/09/05 10:29:39;;;;;;;0.30;0.30;;;27.90;99.80;;;;;;5084187;28;20067;-82
2022/09/05 10:32:32;;;;;;;0.20;0.20;;;28.00;98.50;;;;;;5065832;28;20035;-81
2022/09/05 10:35:04;;;;;;;0.30;0.30;;;28.00;99.40;;;;;;5068345;28;20134;-82
2022/09/05 10:37:42;;;;;;;0.30;0.30;;;28.20;99.20;;;;;;5082732;28;20067;-83
2022/09/05 10:40:12;;;;;;;0.40;0.40;;;28.10;99.90;;;;;;5049541;28;20217;-83
2022/09/05 10:42:46;;;;;;;0.20;0.20;;;28.70;99.30;;;;;;5065786;28;20430;-85
2022/09/05 10:45:54;;;;;;;0.30;0.30;;;28.50;99.20;;;;;;5082961;28;20027;-84
2022/09/05 10:48:36;;;;;;;0.30;0.30;;;28.60;98.70;;;;;;4948020;28;20125;-83
2022/09/05 10:51:28;;;;;;;0.30;0.30;;;28.10;98.30;;;;;;5054327;28;20616;-83
2022/09/05 10:54:12;;;;;;;0.30;0.30;;;29.10;98.90;;;;;;5065744;28;20060;-84
2022/09/05 10:56:46;;;;;;;0.20;0.20;;;29.20;98.00;;;;;;5083429;28;20493;-83
2022/09/05 10:59:19;;;;;;;0.30;0.30;;;29.40;96.20;;;;;;5063860;28;20054;-83
2022/09/05 11:01:46;;;;;;;0.25;0.25;;;29.20;97.90;;;;;;5071104;28;20052;-84
2022/09/05 11:04:45;;;;;;;0.20;0.20;;;29.80;97.20;;;;;;5067086;28;20042;-85
2022/09/05 11:07:16;;;;;;;0.30;0.30;;;30.20;97.60;;;;;;5052407;28;20043;-85
2022/09/05 11:10:11;;;;;;;0.30;0.30;;;30.20;96.00;;;;;;5067291;28;20047;-84
2022/09/05 11:13:18;;;;;;;0.30;0.30;;;29.60;97.40;;;;;;5070268;28;20040;-85
2022/09/05 11:16:09;;;;;;;0.30;0.30;;;29.80;96.10;;;;;;5068074;28;20066;-83
2022/09/05 11:18:51;;;;;;;0.20;0.20;;;29.80;95.20;;;;;;5065049;28;20809;-84
2022/09/05 11:21:57;;;;;;;0.20;0.20;;;29.80;95.80;;;;;;5074246;28;20050;-83
2022/09/05 11:24:49;;;;;;;0.30;0.30;;;29.50;96.10;;;;;;5062452;28;20097;-85
2022/09/05 11:27:32;;;;;;;0.30;0.30;;;28.90;96.00;;;;;;5050499;28;20040;-82
2022/09/05 11:30:04;;;;;;;0.28;0.28;;;28.30;96.50;;;;;;5064166;28;20058;-81
2022/09/05 11:32:38;;;;;;;0.30;0.30;;;28.80;96.60;;;;;;5062840;28;20401;-82
2022/09/05 11:35:19;;;;;;;0.30;0.30;;;29.10;96.80;;;;;;5066757;28;20849;-80
2022/09/05 11:38:03;;;;;;;0.30;0.30;;;28.80;95.60;;;;;;5044381;28;20056;-82
2022/09/05 11:40:50;;;;;;;0.30;0.30;;;29.10;95.60;;;;;;5045966;28;20040;-82
2022/09/05 11:43:41;;;;;;;0.30;0.30;;;29.30;95.90;;;;;;5045285;28;20036;-81
2022/09/05 11:46:22;;;;;;;0.30;0.30;;;29.30;97.10;;;;;;5046458;28;20072;-82
2022/09/05 11:49:06;;;;;;;0.30;0.30;;;29.80;96.50;;;;;;5046471;28;20052;-81
2022/09/05 11:51:32;;;;;;;;;;;29.80;95.10;;;;;;5047420;28;20055;-81
2022/09/05 11:54:35;;;;;;;0.30;0.30;;;30.40;95.70;;;;;;5065168;28;19920;-80
2022/09/05 11:57:22;;;;;;;0.30;0.30;;;30.30;95.50;;;;;;5045949;28;20075;-81
2022/09/05 11:59:59;;;;;;;0.30;0.30;;;29.10;94.90;;;;;;5046055;28;20197;-80
2022/09/05 12:02:32;;;;;;;0.30;0.30;;;28.60;96.00;;;;;;5042962;28;20071;-81
2022/09/05 12:05:02;;;;;;;0.30;0.30;;;28.00;95.90;;;;;;5046038;28;20520;-80
2022/09/05 12:07:48;;;;;;;0.20;0.20;;;28.10;96.50;;;;;;5044878;28;20122;-81
2022/09/05 12:10:31;;;;;;;0.30;0.30;;;28.60;95.60;;;;;;5047021;28;20091;-82
2022/09/05 12:13:22;;;;;;;0.30;0.30;;;29.30;95.40;;;;;;5026928;28;20118;-79
2022/09/05 12:15:48;;;;;;;0.30;0.30;;;28.80;95.60;;;;;;5046504;28;20559;-80
2022/09/05 12:18:42;;;;;;;0.30;0.30;;;29.20;95.90;;;;;;5062210;28;20044;-80
2022/09/05 12:21:32;;;;;;;0.30;0.30;;;29.70;96.50;;;;;;5043914;28;20040;-82
2022/09/05 12:24:20;;;;;;;0.20;0.20;;;29.20;95.10;;;;;;5045729;28;21165;-81
2022/09/05 12:27:07;;;;;;;0.30;0.30;;;29.10;94.40;;;;;;5060561;28;20505;-80
2022/09/05 12:29:45;;;;;;;0.30;0.30;;;28.80;95.40;;;;;;5043282;28;20715;-80
2022/09/05 12:32:19;;;;;;;0.30;0.30;;;28.70;95.70;;;;;;5046871;28;20532;-81
2022/09/05 12:35:11;;;;;;;0.30;0.30;;;28.50;95.60;;;;;;5044843;28;20062;-80
2022/09/05 12:37:48;;;;;;;0.30;0.30;;;29.20;95.70;;;;;;5032968;28;20084;-80
2022/09/05 12:40:24;;;;;;;0.30;0.30;;;30.00;96.20;;;;;;5031009;28;20052;-81
2022/09/05 12:42:55;;;;;;;0.30;0.30;;;29.10;95.30;;;;;;5030974;28;20052;-81
2022/09/05 12:45:43;;;;;;;0.30;0.30;;;28.40;94.20;;;;;;5031976;28;20058;-80
2022/09/05 12:48:18;;;;;;;0.30;0.30;;;28.80;94.00;;;;;;5036377;28;20045;-81
2022/09/05 12:51:10;;;;;;;0.30;0.30;;;29.30;95.40;;;;;;5031133;28;20200;-80
2022/09/05 12:53:44;;;;;;;0.30;0.30;;;29.20;94.40;;;;;;5033161;28;20052;-80
2022/09/05 12:56:34;;;;;;;0.30;0.30;;;29.30;95.20;;;;;;5032287;28;20496;-80
2022/09/05 12:59:01;;;;;;;0.30;0.30;;;29.70;95.10;;;;;;5017180;28;20069;-82
2022/09/05 13:01:31;;;;;;;0.22;0.22;;;29.40;95.00;;;;;;5000375;28;20710;-82
2022/09/05 13:04:00;;;;;;;0.30;0.30;;;29.20;94.90;;;;;;5048889;28;20055;-81
2022/09/05 13:06:39;;;;;;;0.30;0.30;;;28.90;93.30;;;;;;5003362;28;20120;-81
2022/09/05 13:09:26;;;;;;;0.25;0.25;;;28.90;95.40;;;;;;5012592;28;20848;-81
2022/09/05 13:12:08;;;;;;;0.20;0.20;;;28.90;94.20;;;;;;5029259;28;20044;-82
2022/09/05 13:14:51;;;;;;;0.28;0.28;;;29.90;94.80;;;;;;5013051;28;20040;-83
2022/09/05 13:17:26;;;;;;;0.30;0.30;;;29.80;93.90;;;;;;5001580;28;20155;-81
2022/09/05 13:19:53;;;;;;;0.30;0.30;;;29.90;94.30;;;;;;5022291;28;20141;-82
2022/09/05 13:22:22;;;;;;;0.30;0.30;;;29.30;92.50;;;;;;5035180;28;20063;-81
2022/09/05 13:25:03;;;;;;;0.30;0.30;;;29.00;93.10;;;;;;5015998;28;20055;-82
2022/09/05 13:27:38;;;;;;;0.30;0.30;;;29.00;93.00;;;;;;5027278;28;20481;-79
2022/09/05 13:30:14;;;;;;;0.30;0.30;;;29.30;94.00;;;;;;5026548;28;20054;-80
2022/09/05 13:32:48;;;;;;;0.30;0.30;;;29.40;93.30;;;;;;5020578;28;20043;-85
2022/09/05 13:35:31;;;;;;;0.25;0.25;;;29.40;93.20;;;;;;5021643;28;20102;-79
2022/09/05 13:38:13;;;;;;;0.30;0.30;;;29.20;93.70;;;;;;5053869;28;20047;-80
2022/09/05 13:40:49;;;;;;;0.30;0.30;;;29.80;93.40;;;;;;5054651;28;20078;-81
2022/09/05 13:43:21;;;;;;;0.30;0.30;;;30.10;93.10;;;;;;5051801;28;20097;-79
2022/09/05 13:46:15;;;;;;;0.30;0.30;;;29.50;92.70;;;;;;5053538;28;20120;-82
2022/09/05 13:49:01;;;;;;;0.30;0.30;;;29.30;93.40;;;;;;5054941;28;20051;-80
2022/09/05 13:51:50;;;;;;;0.28;0.28;;;29.10;92.90;;;;;;5052160;28;20074;-81
2022/09/05 13:54:44;;;;;;;0.30;0.30;;;29.30;92.50;;;;;;5054721;28;20047;-80
2022/09/05 13:57:29;;;;;;;;;;;29.80;92.60;;;;;;5053167;28;20085;-81
2022/09/05 14:00:16;;;;;;;0.30;0.30;;;30.10;92.80;;;;;;5053312;28;19928;-83
2022/09/05 14:03:13;;;;;;;0.30;0.30;;;29.70;92.60;;;;;;5062895;28;21297;-81
2022/09/05 14:06:19;;;;;;;0.30;0.30;;;29.40;92.40;;;;;;5075017;28;20050;-81
2022/09/05 14:09:28;;;;;;;0.30;0.30;;;29.10;93.20;;;;;;5071367;28;20077;-82